Time;durP1;ratioP1;P1;durP2;ratioP2;P2;SDS_P1;SDS_P2;PMS_P1;PMS_P2;Temp;Humidity;BMP_temperature;BMP_pressure;BME280_temperature;BME280_humidity;BME280_pressure;Samples;Min_cycle;Max_cycle;Signal;HPM_P1;HPM_P2
2023/12/21 00:02:11;;;;;;;5.40;1.50;;;;;;;;;;5054554;28;20017;-68
2023/12/21 00:04:37;;;;;;;3.33;1.15;;;;;;;;;;5054474;28;20029;-69
2023/12/21 00:07:02;;;;;;;4.38;1.60;;;;;;;;;;5054351;28;20087;-69
2023/12/21 00:09:28;;;;;;;2.30;1.10;;;;;;;;;;5054073;28;20478;-69
2023/12/21 00:11:53;;;;;;;2.38;1.00;;;;;;;;;;5054208;28;20097;-69
2023/12/21 00:14:19;;;;;;;2.80;1.15;;;;;;;;;;5054109;28;20025;-69
2023/12/21 00:16:44;;;;;;;4.55;1.70;;;;;;;;;;5054349;28;20066;-69
2023/12/21 00:19:09;;;;;;;8.27;1.50;;;;;;;;;;5054289;28;20028;-69
2023/12/21 00:21:35;;;;;;;5.57;1.10;;;;;;;;;;5056871;28;20027;-69
2023/12/21 00:24:00;;;;;;;3.97;1.00;;;;;;;;;;5073651;28;20398;-69
2023/12/21 00:26:26;;;;;;;4.72;1.33;;;;;;;;;;5073541;28;20020;-69
2023/12/21 00:28:51;;;;;;;3.42;1.02;;;;;;;;;;5053713;28;20025;-69
2023/12/21 00:31:16;;;;;;;2.15;1.20;;;;;;;;;;5053677;28;20021;-69
2023/12/21 00:33:42;;;;;;;3.33;0.88;;;;;;;;;;5053827;28;20552;-69
2023/12/21 00:36:07;;;;;;;1.40;0.70;;;;;;;;;;5053735;28;20060;-69
2023/12/21 00:38:33;;;;;;;2.78;0.88;;;;;;;;;;5053640;28;20095;-69
2023/12/21 00:40:59;;;;;;;4.70;1.40;;;;;;;;;;5053795;28;20079;-69
2023/12/21 00:43:25;;;;;;;4.03;1.40;;;;;;;;;;5053364;28;20032;-69
2023/12/21 00:45:50;;;;;;;3.08;0.93;;;;;;;;;;5053769;28;20103;-69
2023/12/21 00:48:17;;;;;;;3.40;0.98;;;;;;;;;;5054204;28;20104;-69
2023/12/21 00:50:42;;;;;;;4.20;1.30;;;;;;;;;;5052470;28;20036;-69
2023/12/21 00:53:08;;;;;;;2.95;1.20;;;;;;;;;;5053461;28;20025;-69
2023/12/21 00:55:33;;;;;;;5.22;1.10;;;;;;;;;;5053478;28;20075;-69
2023/12/21 00:57:59;;;;;;;3.97;1.15;;;;;;;;;;5053091;28;20021;-69
2023/12/21 01:00:24;;;;;;;2.97;0.73;;;;;;;;;;5053745;28;20064;-69
2023/12/21 01:02:49;;;;;;;1.92;1.00;;;;;;;;;;5053401;28;20028;-69
2023/12/21 01:05:15;;;;;;;3.13;0.88;;;;;;;;;;5053187;28;20032;-69
2023/12/21 01:07:41;;;;;;;1.73;0.73;;;;;;;;;;5053074;28;20032;-69
2023/12/21 01:10:08;;;;;;;3.08;0.90;;;;;;;;;;5052371;28;20052;-69
2023/12/21 01:12:34;;;;;;;1.85;0.90;;;;;;;;;;5052906;28;20494;-69
2023/12/21 01:15:00;;;;;;;2.03;0.90;;;;;;;;;;5053170;28;20031;-69
2023/12/21 01:17:25;;;;;;;1.70;0.80;;;;;;;;;;5053032;28;20103;-69
2023/12/21 01:19:51;;;;;;;1.30;0.75;;;;;;;;;;5052967;28;20113;-69
2023/12/21 01:22:16;;;;;;;1.45;0.80;;;;;;;;;;5052989;28;20059;-69
2023/12/21 01:24:42;;;;;;;4.13;1.00;;;;;;;;;;5052898;28;20048;-69
2023/12/21 01:27:07;;;;;;;1.83;0.65;;;;;;;;;;5052667;28;20455;-69
2023/12/21 01:29:33;;;;;;;1.88;0.80;;;;;;;;;;5052636;28;20434;-69
2023/12/21 01:31:58;;;;;;;3.10;1.13;;;;;;;;;;5052617;28;20060;-69
2023/12/21 01:34:24;;;;;;;2.25;0.80;;;;;;;;;;5052898;28;20421;-69
2023/12/21 01:36:49;;;;;;;4.68;0.85;;;;;;;;;;5052676;28;20025;-69
2023/12/21 01:39:15;;;;;;;1.63;0.80;;;;;;;;;;5052446;28;20036;-69
2023/12/21 01:41:40;;;;;;;0.88;0.70;;;;;;;;;;5052416;28;20017;-69
2023/12/21 01:44:05;;;;;;;1.60;0.80;;;;;;;;;;5052629;28;20074;-69
2023/12/21 01:46:32;;;;;;;0.95;0.70;;;;;;;;;;5052587;28;20109;-69
2023/12/21 01:48:57;;;;;;;4.32;0.93;;;;;;;;;;5052721;28;20025;-69
2023/12/21 01:51:23;;;;;;;1.30;0.80;;;;;;;;;;5052556;28;20429;-69
2023/12/21 01:53:50;;;;;;;3.13;0.70;;;;;;;;;;5052399;28;20099;-69
2023/12/21 01:56:18;;;;;;;1.20;0.80;;;;;;;;;;5052321;28;20025;-69
2023/12/21 01:58:44;;;;;;;3.63;0.80;;;;;;;;;;5052429;28;20020;-69
2023/12/21 02:01:10;;;;;;;1.75;0.80;;;;;;;;;;5052486;28;20036;-69
2023/12/21 02:03:37;;;;;;;2.28;0.80;;;;;;;;;;5051086;28;20387;-69
2023/12/21 02:06:03;;;;;;;1.38;0.80;;;;;;;;;;5052175;28;20378;-69
2023/12/21 02:08:28;;;;;;;2.72;0.73;;;;;;;;;;5052481;28;20028;-70
2023/12/21 02:10:59;;;;;;;0.82;0.60;;;;;;;;;;5052087;28;20035;-69
2023/12/21 02:13:25;;;;;;;2.10;0.88;;;;;;;;;;5052228;28;20547;-69
2023/12/21 02:15:53;;;;;;;1.40;0.73;;;;;;;;;;5052329;28;20108;-69
2023/12/21 02:18:20;;;;;;;0.88;0.60;;;;;;;;;;5052326;28;20036;-69
2023/12/21 02:20:47;;;;;;;1.45;0.77;;;;;;;;;;5054668;28;20036;-69
2023/12/21 02:23:16;;;;;;;1.02;0.82;;;;;;;;;;5056376;28;20527;-69
2023/12/21 02:25:41;;;;;;;2.92;0.90;;;;;;;;;;5056108;28;20040;-69
2023/12/21 02:28:08;;;;;;;0.88;0.73;;;;;;;;;;5056179;28;20025;-69
2023/12/21 02:30:35;;;;;;;2.53;1.00;;;;;;;;;;5055883;28;20063;-69
2023/12/21 02:33:01;;;;;;;2.67;1.10;;;;;;;;;;5056204;28;20036;-69
2023/12/21 02:35:26;;;;;;;2.63;1.25;;;;;;;;;;5055926;28;20467;-69
2023/12/21 02:37:51;;;;;;;1.90;1.00;;;;;;;;;;5055955;28;20033;-69
2023/12/21 02:40:17;;;;;;;2.83;1.50;;;;;;;;;;5055661;28;20025;-69
2023/12/21 02:42:44;;;;;;;2.53;1.40;;;;;;;;;;5055972;28;20052;-69
2023/12/21 02:45:09;;;;;;;3.30;1.30;;;;;;;;;;5056185;28;20107;-69
2023/12/21 02:47:35;;;;;;;3.60;1.30;;;;;;;;;;5055712;28;20114;-69
2023/12/21 02:50:01;;;;;;;1.95;1.17;;;;;;;;;;5055754;28;20048;-69
2023/12/21 02:52:27;;;;;;;1.70;1.23;;;;;;;;;;5055742;28;20025;-69
2023/12/21 02:54:52;;;;;;;1.08;0.98;;;;;;;;;;5055627;28;20387;-69
2023/12/21 02:57:18;;;;;;;1.35;0.95;;;;;;;;;;5055718;28;20041;-69
2023/12/21 02:59:43;;;;;;;1.95;1.08;;;;;;;;;;5055576;28;20036;-69
2023/12/21 03:02:09;;;;;;;2.35;1.00;;;;;;;;;;5055727;28;20025;-69
2023/12/21 03:04:34;;;;;;;1.83;1.00;;;;;;;;;;5055735;28;20024;-69
2023/12/21 03:06:59;;;;;;;5.55;1.15;;;;;;;;;;5055660;28;20454;-69
2023/12/21 03:09:25;;;;;;;2.63;0.93;;;;;;;;;;5055244;28;20033;-69
2023/12/21 03:11:50;;;;;;;1.45;0.90;;;;;;;;;;5055451;28;20492;-69
2023/12/21 03:14:16;;;;;;;1.42;1.00;;;;;;;;;;5055447;28;20033;-69
2023/12/21 03:16:41;;;;;;;1.90;1.02;;;;;;;;;;5055471;28;20024;-69
2023/12/21 03:19:06;;;;;;;1.45;1.10;;;;;;;;;;5055631;28;20055;-69
2023/12/21 03:21:32;;;;;;;2.08;1.30;;;;;;;;;;5055095;28;20029;-69
2023/12/21 03:23:57;;;;;;;2.28;1.45;;;;;;;;;;5055287;28;20493;-69
2023/12/21 03:26:24;;;;;;;2.83;1.70;;;;;;;;;;5055144;28;20079;-69
2023/12/21 03:28:49;;;;;;;2.95;1.58;;;;;;;;;;5055072;28;20040;-69
2023/12/21 03:31:18;;;;;;;2.28;1.48;;;;;;;;;;5054126;28;20025;-69
2023/12/21 03:33:43;;;;;;;2.78;1.40;;;;;;;;;;5054926;28;20024;-69
2023/12/21 03:36:11;;;;;;;2.10;1.40;;;;;;;;;;5054786;28;20432;-69
2023/12/21 03:38:37;;;;;;;3.30;1.45;;;;;;;;;;5054674;28;20466;-69
2023/12/21 03:41:02;;;;;;;2.58;1.50;;;;;;;;;;5054975;28;20025;-69
2023/12/21 03:43:28;;;;;;;2.75;1.50;;;;;;;;;;5054798;28;20021;-69
2023/12/21 03:45:53;;;;;;;2.80;1.65;;;;;;;;;;5054902;28;20373;-69
2023/12/21 03:48:19;;;;;;;3.50;1.48;;;;;;;;;;5054715;28;20466;-69
2023/12/21 03:50:44;;;;;;;4.00;2.00;;;;;;;;;;5054543;28;20112;-69
2023/12/21 03:53:11;;;;;;;2.47;1.88;;;;;;;;;;5054675;28;20017;-70
2023/12/21 03:55:39;;;;;;;3.65;1.80;;;;;;;;;;5054670;28;20029;-69
2023/12/21 03:58:04;;;;;;;3.75;2.33;;;;;;;;;;5055073;28;20025;-69
2023/12/21 04:00:30;;;;;;;3.95;1.92;;;;;;;;;;5054692;28;20028;-69
2023/12/21 04:02:55;;;;;;;3.83;2.20;;;;;;;;;;5054659;28;20471;-69
2023/12/21 04:05:21;;;;;;;4.70;2.30;;;;;;;;;;5054327;28;20360;-69
2023/12/21 04:07:46;;;;;;;3.88;2.60;;;;;;;;;;5054363;28;20075;-69
2023/12/21 04:10:12;;;;;;;3.70;2.25;;;;;;;;;;5054307;28;20040;-69
2023/12/21 04:12:37;;;;;;;4.05;2.22;;;;;;;;;;5054443;28;20017;-69
2023/12/21 04:15:03;;;;;;;3.42;2.20;;;;;;;;;;5054436;28;20032;-69
2023/12/21 04:17:28;;;;;;;4.15;2.90;;;;;;;;;;5054168;28;20056;-69
2023/12/21 04:19:54;;;;;;;5.55;2.50;;;;;;;;;;5053906;28;20364;-69
2023/12/21 04:22:20;;;;;;;4.63;2.55;;;;;;;;;;5054109;28;20029;-69
2023/12/21 04:24:45;;;;;;;4.03;2.70;;;;;;;;;;5053740;28;20032;-69
2023/12/21 04:27:12;;;;;;;3.60;2.38;;;;;;;;;;5054039;28;20108;-70
2023/12/21 04:29:38;;;;;;;3.85;2.70;;;;;;;;;;5053806;28;20033;-69
2023/12/21 04:32:04;;;;;;;4.65;2.90;;;;;;;;;;5053769;28;20107;-69
2023/12/21 04:34:29;;;;;;;4.15;2.63;;;;;;;;;;5053740;28;20032;-69
2023/12/21 04:36:55;;;;;;;5.20;3.45;;;;;;;;;;5053838;28;20021;-70
2023/12/21 04:39:20;;;;;;;4.65;3.15;;;;;;;;;;5051684;28;20436;-69
2023/12/21 04:41:45;;;;;;;3.97;2.63;;;;;;;;;;5053766;28;20041;-69
2023/12/21 04:44:11;;;;;;;5.03;3.08;;;;;;;;;;5053636;28;20032;-69
2023/12/21 04:46:36;;;;;;;6.00;3.30;;;;;;;;;;5052247;28;20170;-69
2023/12/21 04:49:02;;;;;;;6.78;3.55;;;;;;;;;;5053369;28;20037;-69
2023/12/21 04:51:27;;;;;;;5.47;3.38;;;;;;;;;;5053399;28;20021;-69
2023/12/21 04:53:53;;;;;;;5.53;3.63;;;;;;;;;;5053130;28;20044;-69
2023/12/21 04:56:18;;;;;;;5.10;3.30;;;;;;;;;;5053266;28;20025;-69
2023/12/21 04:58:44;;;;;;;4.80;3.20;;;;;;;;;;5053424;28;20031;-69
2023/12/21 05:01:09;;;;;;;4.95;3.30;;;;;;;;;;5053580;28;20025;-70
2023/12/21 05:03:35;;;;;;;6.10;3.03;;;;;;;;;;5053187;28;20454;-70
2023/12/21 05:06:01;;;;;;;4.75;3.08;;;;;;;;;;5051730;28;20025;-69
2023/12/21 05:08:27;;;;;;;5.60;3.20;;;;;;;;;;5053236;28;20083;-69
2023/12/21 05:10:53;;;;;;;7.63;3.30;;;;;;;;;;5053024;28;20037;-69
2023/12/21 05:13:18;;;;;;;4.93;3.42;;;;;;;;;;5053186;28;20029;-69
2023/12/21 05:15:44;;;;;;;4.85;3.60;;;;;;;;;;5053155;28;20028;-70
2023/12/21 05:18:09;;;;;;;6.38;4.30;;;;;;;;;;5052898;28;20488;-69
2023/12/21 05:20:35;;;;;;;6.93;3.95;;;;;;;;;;5053014;28;20033;-69
2023/12/21 05:23:00;;;;;;;6.53;4.10;;;;;;;;;;5053078;28;20381;-69
2023/12/21 05:25:26;;;;;;;7.10;4.60;;;;;;;;;;5052484;28;20060;-69
2023/12/21 05:27:52;;;;;;;5.97;4.13;;;;;;;;;;5052895;28;20060;-69
2023/12/21 05:30:18;;;;;;;5.85;4.07;;;;;;;;;;5052895;28;20390;-69
2023/12/21 05:32:44;;;;;;;8.85;4.57;;;;;;;;;;5052512;28;20051;-68
2023/12/21 05:35:10;;;;;;;6.25;4.10;;;;;;;;;;5053121;28;20386;-68
2023/12/21 05:37:35;;;;;;;7.05;4.90;;;;;;;;;;5052752;28;20457;-69
2023/12/21 05:40:00;;;;;;;6.22;4.15;;;;;;;;;;5053072;28;20485;-69
2023/12/21 05:42:26;;;;;;;8.75;4.30;;;;;;;;;;5052673;28;20044;-69
2023/12/21 05:44:52;;;;;;;7.35;4.25;;;;;;;;;;5052758;28;20025;-68
2023/12/21 05:47:17;;;;;;;6.50;4.30;;;;;;;;;;5052327;28;20017;-70
2023/12/21 05:49:43;;;;;;;8.57;4.28;;;;;;;;;;5052553;28;20043;-70
2023/12/21 05:52:08;;;;;;;6.25;4.10;;;;;;;;;;5052665;28;20471;-69
2023/12/21 05:54:34;;;;;;;6.15;3.72;;;;;;;;;;5052071;28;20069;-70
2023/12/21 05:57:00;;;;;;;6.43;4.00;;;;;;;;;;5052292;28;20024;-69
2023/12/21 05:59:26;;;;;;;6.45;4.07;;;;;;;;;;5051175;28;20063;-70
2023/12/21 06:01:51;;;;;;;5.00;3.75;;;;;;;;;;5052275;28;20057;-70
2023/12/21 06:04:16;;;;;;;6.05;3.05;;;;;;;;;;5051266;28;20049;-69
2023/12/21 06:06:46;;;;;;;5.88;4.10;;;;;;;;;;5052421;28;20067;-69
2023/12/21 06:09:12;;;;;;;7.72;4.30;;;;;;;;;;5052365;28;20116;-70
2023/12/21 06:11:37;;;;;;;5.28;3.58;;;;;;;;;;5052384;28;20446;-70
2023/12/21 06:14:03;;;;;;;7.28;4.90;;;;;;;;;;5052113;28;20032;-70
2023/12/21 06:16:28;;;;;;;6.38;4.07;;;;;;;;;;5052259;28;20029;-70
2023/12/21 06:18:54;;;;;;;6.43;3.97;;;;;;;;;;5052212;28;20035;-69
2023/12/21 06:21:19;;;;;;;5.40;3.35;;;;;;;;;;5052246;28;20029;-69
2023/12/21 06:23:45;;;;;;;7.43;3.67;;;;;;;;;;5051744;28;20025;-69
2023/12/21 06:26:11;;;;;;;5.90;3.72;;;;;;;;;;5052246;28;20024;-69
2023/12/21 06:28:36;;;;;;;5.88;3.65;;;;;;;;;;5052059;28;20540;-69
2023/12/21 06:31:02;;;;;;;6.22;3.80;;;;;;;;;;5051775;28;20060;-69
2023/12/21 06:33:27;;;;;;;7.32;4.00;;;;;;;;;;5051960;28;20025;-69
2023/12/21 06:35:53;;;;;;;7.60;3.95;;;;;;;;;;5052080;28;20017;-69
2023/12/21 06:38:18;;;;;;;7.38;4.15;;;;;;;;;;5052112;28;20025;-69
2023/12/21 06:40:44;;;;;;;7.43;4.40;;;;;;;;;;5051924;28;20074;-69
2023/12/21 06:43:09;;;;;;;6.53;4.05;;;;;;;;;;5052314;28;20459;-69
2023/12/21 06:45:35;;;;;;;7.57;3.72;;;;;;;;;;5051918;28;20025;-69
2023/12/21 06:48:00;;;;;;;5.60;3.83;;;;;;;;;;5051647;28;20138;-69
2023/12/21 06:50:26;;;;;;;5.95;3.92;;;;;;;;;;5051920;28;20028;-69
2023/12/21 06:52:51;;;;;;;5.25;3.58;;;;;;;;;;5051973;28;20108;-69
2023/12/21 06:55:17;;;;;;;5.28;3.40;;;;;;;;;;5051655;28;20398;-69
2023/12/21 06:57:43;;;;;;;5.00;2.97;;;;;;;;;;5051859;28;20374;-69
2023/12/21 07:00:09;;;;;;;5.03;3.20;;;;;;;;;;5051757;28;20440;-69
2023/12/21 07:02:35;;;;;;;4.90;2.90;;;;;;;;;;5051989;28;20021;-69
2023/12/21 07:05:01;;;;;;;8.75;6.07;;;;;;;;;;5052445;28;20025;-70
2023/12/21 07:07:26;;;;;;;5.22;3.03;;;;;;;;;;5053694;28;20025;-70
2023/12/21 07:09:52;;;;;;;6.38;3.70;;;;;;;;;;5055619;28;20373;-70
2023/12/21 07:12:17;;;;;;;6.85;4.07;;;;;;;;;;5055561;28;20025;-70
2023/12/21 07:14:43;;;;;;;7.82;4.00;;;;;;;;;;5055236;28;20040;-70
2023/12/21 07:17:08;;;;;;;5.43;3.75;;;;;;;;;;5055406;28;20548;-70
2023/12/21 07:19:33;;;;;;;5.10;3.55;;;;;;;;;;5055004;28;20027;-69
2023/12/21 07:21:59;;;;;;;5.78;3.38;;;;;;;;;;5055272;28;20052;-69
2023/12/21 07:24:24;;;;;;;6.82;2.90;;;;;;;;;;5055414;28;20037;-70
2023/12/21 07:26:50;;;;;;;5.85;3.45;;;;;;;;;;5055152;28;20075;-69
2023/12/21 07:29:16;;;;;;;4.47;2.97;;;;;;;;;;5055020;28;20017;-69
2023/12/21 07:31:41;;;;;;;4.13;2.50;;;;;;;;;;5055098;28;20503;-69
2023/12/21 07:34:07;;;;;;;4.63;2.65;;;;;;;;;;5054898;28;20489;-70
2023/12/21 07:36:32;;;;;;;4.18;2.67;;;;;;;;;;5054825;28;20525;-70
2023/12/21 07:38:57;;;;;;;4.43;2.90;;;;;;;;;;5054930;28;20029;-70
2023/12/21 07:41:23;;;;;;;5.97;2.85;;;;;;;;;;5054891;28;20032;-69
2023/12/21 07:43:48;;;;;;;4.78;2.55;;;;;;;;;;5054728;28;20086;-69
2023/12/21 07:46:14;;;;;;;5.80;3.35;;;;;;;;;;5054690;28;20464;-69
2023/12/21 07:48:39;;;;;;;6.07;3.40;;;;;;;;;;5054477;28;20041;-69
2023/12/21 07:51:09;;;;;;;8.38;4.15;;;;;;;;;;5054475;28;20037;-69
2023/12/21 07:53:35;;;;;;;8.20;4.15;;;;;;;;;;5054305;28;20140;-70
2023/12/21 07:56:02;;;;;;;10.98;4.70;;;;;;;;;;5054648;28;20067;-70
2023/12/21 07:58:28;;;;;;;10.48;4.45;;;;;;;;;;5054373;28;20495;-70
2023/12/21 08:00:53;;;;;;;6.57;3.30;;;;;;;;;;5054464;28;20063;-69
2023/12/21 08:03:19;;;;;;;8.00;4.00;;;;;;;;;;5054397;28;20120;-70
2023/12/21 08:05:45;;;;;;;7.20;3.58;;;;;;;;;;5054423;28;20029;-69
2023/12/21 08:08:10;;;;;;;8.57;3.60;;;;;;;;;;5054373;28;20585;-69
2023/12/21 08:10:36;;;;;;;5.85;3.42;;;;;;;;;;5054108;28;20115;-70
2023/12/21 08:13:01;;;;;;;5.25;3.35;;;;;;;;;;5054094;28;20029;-69
2023/12/21 08:15:26;;;;;;;7.95;3.75;;;;;;;;;;5054299;28;20029;-69
2023/12/21 08:17:57;;;;;;;6.63;3.88;;;;;;;;;;5053733;28;20051;-70
2023/12/21 08:20:23;;;;;;;6.35;3.72;;;;;;;;;;5054216;28;20075;-70
2023/12/21 08:22:49;;;;;;;5.45;3.47;;;;;;;;;;5054131;28;20421;-70
2023/12/21 08:25:15;;;;;;;4.55;3.05;;;;;;;;;;5054059;28;20437;-70
2023/12/21 08:27:43;;;;;;;8.57;4.70;;;;;;;;;;5053779;28;20056;-69
2023/12/21 08:30:10;;;;;;;5.82;3.60;;;;;;;;;;5053934;28;20051;-70
2023/12/21 08:32:35;;;;;;;6.13;3.38;;;;;;;;;;5053879;28;20025;-69
2023/12/21 08:35:01;;;;;;;5.40;3.50;;;;;;;;;;5054192;28;20029;-69
2023/12/21 08:37:26;;;;;;;8.82;3.35;;;;;;;;;;5053638;28;20466;-69
2023/12/21 08:39:52;;;;;;;5.22;3.33;;;;;;;;;;5053509;28;20052;-69
2023/12/21 08:42:17;;;;;;;6.18;3.42;;;;;;;;;;5053618;28;20033;-69
2023/12/21 08:44:43;;;;;;;6.00;3.28;;;;;;;;;;5053769;28;20025;-70
2023/12/21 08:47:08;;;;;;;3.63;2.65;;;;;;;;;;5053550;28;20032;-69
2023/12/21 08:49:34;;;;;;;5.75;3.05;;;;;;;;;;5053543;28;20032;-69
2023/12/21 08:51:59;;;;;;;3.60;2.45;;;;;;;;;;5053646;28;20028;-69
2023/12/21 08:54:24;;;;;;;3.70;2.20;;;;;;;;;;5053387;28;20041;-69
2023/12/21 08:56:53;;;;;;;3.53;2.20;;;;;;;;;;5053307;28;20120;-70
2023/12/21 08:59:18;;;;;;;2.60;1.83;;;;;;;;;;5053396;28;20029;-69
2023/12/21 09:01:44;;;;;;;2.30;1.60;;;;;;;;;;5053522;28;20040;-69
2023/12/21 09:04:09;;;;;;;2.28;1.25;;;;;;;;;;5053327;28;20079;-70
2023/12/21 09:06:35;;;;;;;2.38;1.35;;;;;;;;;;5053348;28;20497;-70
2023/12/21 09:09:02;;;;;;;2.70;1.13;;;;;;;;;;5053052;28;20021;-70
2023/12/21 09:11:28;;;;;;;1.65;1.10;;;;;;;;;;5052957;28;20024;-69
2023/12/21 09:13:55;;;;;;;1.52;1.20;;;;;;;;;;5053083;28;20079;-69
2023/12/21 09:16:21;;;;;;;1.88;1.10;;;;;;;;;;5053171;28;20401;-69
2023/12/21 09:18:47;;;;;;;2.35;0.80;;;;;;;;;;5053114;28;20104;-69
2023/12/21 09:21:12;;;;;;;1.45;0.90;;;;;;;;;;5053123;28;20573;-69
2023/12/21 09:23:39;;;;;;;2.33;0.98;;;;;;;;;;5052876;28;20095;-69
2023/12/21 09:26:08;;;;;;;2.00;0.82;;;;;;;;;;5052522;28;20036;-71
2023/12/21 09:28:37;;;;;;;1.10;0.88;;;;;;;;;;5052710;28;20423;-71
2023/12/21 09:31:04;;;;;;;1.55;0.90;;;;;;;;;;5051919;28;20540;-71
2023/12/21 09:33:33;;;;;;;1.27;0.82;;;;;;;;;;5052760;28;20036;-71
2023/12/21 09:35:59;;;;;;;1.90;1.20;;;;;;;;;;5052349;28;20035;-71
2023/12/21 09:38:25;;;;;;;1.55;0.93;;;;;;;;;;5052592;28;20361;-71
2023/12/21 09:40:50;;;;;;;1.65;1.00;;;;;;;;;;5052688;28;20092;-71
2023/12/21 09:43:21;;;;;;;1.95;1.20;;;;;;;;;;5052513;28;20036;-72
2023/12/21 09:45:50;;;;;;;2.05;1.38;;;;;;;;;;5052266;28;20025;-72
2023/12/21 09:48:17;;;;;;;2.25;1.00;;;;;;;;;;5052516;28;20540;-70
2023/12/21 09:50:49;;;;;;;1.60;0.85;;;;;;;;;;5052613;28;20111;-73
2023/12/21 09:53:15;;;;;;;2.92;1.60;;;;;;;;;;5052154;28;20057;-72
2023/12/21 09:55:42;;;;;;;0.98;0.88;;;;;;;;;;5052608;28;20490;-73
2023/12/21 09:58:11;;;;;;;3.28;0.95;;;;;;;;;;5052460;28;20557;-73
2023/12/21 10:00:37;;;;;;;1.10;0.90;;;;;;;;;;5052516;28;20449;-73
2023/12/21 10:03:04;;;;;;;2.50;1.30;;;;;;;;;;5052417;28;20036;-73
2023/12/21 10:05:29;;;;;;;1.73;1.25;;;;;;;;;;5052425;28;20389;-72
2023/12/21 10:07:55;;;;;;;2.20;1.08;;;;;;;;;;5052142;28;20104;-72
2023/12/21 10:10:20;;;;;;;1.52;1.10;;;;;;;;;;5053314;28;20090;-73
2023/12/21 10:12:46;;;;;;;1.50;1.35;;;;;;;;;;5052608;28;20017;-73
2023/12/21 10:15:11;;;;;;;1.35;0.98;;;;;;;;;;5046137;28;20032;-74
2023/12/21 10:17:37;;;;;;;2.67;1.10;;;;;;;;;;5042576;28;20025;-74
2023/12/21 10:20:04;;;;;;;3.55;1.40;;;;;;;;;;5052210;28;20116;-74
2023/12/21 10:22:29;;;;;;;2.05;1.35;;;;;;;;;;5051103;28;20386;-73
2023/12/21 10:24:55;;;;;;;1.05;0.88;;;;;;;;;;5052231;28;20494;-73
2023/12/21 10:27:22;;;;;;;1.65;1.00;;;;;;;;;;5052192;28;20040;-73
2023/12/21 10:29:55;;;;;;;1.00;0.80;;;;;;;;;;5052002;28;20029;-74
2023/12/21 10:32:20;;;;;;;1.92;1.00;;;;;;;;;;5048396;28;20036;-72
2023/12/21 10:34:49;;;;;;;1.95;1.10;;;;;;;;;;5052158;28;20374;-75
2023/12/21 10:37:15;;;;;;;2.28;1.10;;;;;;;;;;5051313;28;20031;-75
2023/12/21 10:39:41;;;;;;;1.55;0.90;;;;;;;;;;5051829;28;20033;-74
2023/12/21 10:42:06;;;;;;;0.90;0.80;;;;;;;;;;5054789;28;20029;-74
2023/12/21 10:44:32;;;;;;;0.90;0.80;;;;;;;;;;5055834;28;20028;-73
2023/12/21 10:47:00;;;;;;;0.80;0.70;;;;;;;;;;5055656;28;20025;-74
2023/12/21 10:49:27;;;;;;;1.35;0.70;;;;;;;;;;5053779;28;20107;-73
2023/12/21 10:51:54;;;;;;;0.80;0.70;;;;;;;;;;5055566;28;20055;-74
2023/12/21 10:54:22;;;;;;;1.27;0.85;;;;;;;;;;5055702;28;20052;-73
2023/12/21 10:56:47;;;;;;;1.50;0.80;;;;;;;;;;5055810;28;20103;-74
2023/12/21 10:59:13;;;;;;;1.05;0.70;;;;;;;;;;5055821;28;20162;-74
2023/12/21 11:01:40;;;;;;;1.23;0.80;;;;;;;;;;5055581;28;20029;-73
2023/12/21 11:04:07;;;;;;;0.52;0.52;;;;;;;;;;5054893;28;20037;-74
2023/12/21 11:06:36;;;;;;;3.20;0.80;;;;;;;;;;5055449;28;20383;-74
2023/12/21 11:09:06;;;;;;;1.08;0.80;;;;;;;;;;5055323;28;20059;-74
2023/12/21 11:11:34;;;;;;;2.78;0.90;;;;;;;;;;5055450;28;20024;-74
2023/12/21 11:13:59;;;;;;;1.10;0.80;;;;;;;;;;5054610;28;20044;-73
2023/12/21 11:16:31;;;;;;;1.23;0.90;;;;;;;;;;5055265;28;20526;-73
2023/12/21 11:19:00;;;;;;;0.98;0.70;;;;;;;;;;5054192;28;20053;-75
2023/12/21 11:21:27;;;;;;;1.13;0.80;;;;;;;;;;5055067;28;20052;-74
2023/12/21 11:23:53;;;;;;;1.40;0.90;;;;;;;;;;5040021;28;20087;-73
2023/12/21 11:26:20;;;;;;;1.40;0.75;;;;;;;;;;5035210;28;20034;-73
2023/12/21 11:28:46;;;;;;;0.68;0.68;;;;;;;;;;5034838;28;20532;-74
2023/12/21 11:31:15;;;;;;;0.70;0.70;;;;;;;;;;5048480;28;20021;-73
2023/12/21 11:33:41;;;;;;;1.00;0.70;;;;;;;;;;5053830;28;20024;-73
2023/12/21 11:36:10;;;;;;;0.63;0.60;;;;;;;;;;5054631;28;20017;-73
2023/12/21 11:38:47;;;;;;;0.75;0.65;;;;;;;;;;5054593;28;20155;-73
2023/12/21 11:41:15;;;;;;;1.02;0.70;;;;;;;;;;5054669;28;20094;-74
2023/12/21 11:43:41;;;;;;;1.25;0.80;;;;;;;;;;5054807;28;20471;-72
2023/12/21 11:46:10;;;;;;;1.58;0.85;;;;;;;;;;5053074;28;20025;-71
2023/12/21 11:48:37;;;;;;;3.20;0.80;;;;;;;;;;5054539;28;20029;-73
2023/12/21 11:51:04;;;;;;;2.05;0.60;;;;;;;;;;5053783;28;20152;-73
2023/12/21 11:53:29;;;;;;;1.83;0.98;;;;;;;;;;5053755;28;20127;-72
2023/12/21 11:55:55;;;;;;;0.70;0.60;;;;;;;;;;5053772;28;20112;-74
2023/12/21 11:58:22;;;;;;;1.35;0.90;;;;;;;;;;5053674;28;20196;-72
2023/12/21 12:00:55;;;;;;;1.20;0.80;;;;;;;;;;5053359;28;20443;-73
2023/12/21 12:03:25;;;;;;;0.77;0.70;;;;;;;;;;5054356;28;20391;-73
2023/12/21 12:05:53;;;;;;;0.70;0.70;;;;;;;;;;5054379;28;20035;-73
2023/12/21 12:08:23;;;;;;;0.60;0.60;;;;;;;;;;5054311;28;20021;-73
2023/12/21 12:10:57;;;;;;;0.50;0.50;;;;;;;;;;5053243;28;20032;-73
2023/12/21 12:13:23;;;;;;;0.93;0.57;;;;;;;;;;5054440;28;20025;-73
2023/12/21 12:15:51;;;;;;;0.57;0.52;;;;;;;;;;5053358;28;20478;-73
2023/12/21 12:18:19;;;;;;;0.95;0.70;;;;;;;;;;5053815;28;20040;-72
2023/12/21 12:20:47;;;;;;;0.98;0.70;;;;;;;;;;5053335;28;20032;-73
2023/12/21 12:23:13;;;;;;;0.85;0.73;;;;;;;;;;5051930;28;20422;-71
2023/12/21 12:25:39;;;;;;;1.88;0.68;;;;;;;;;;5053996;28;20033;-73
2023/12/21 12:28:04;;;;;;;1.27;0.85;;;;;;;;;;5053871;28;20040;-73
2023/12/21 12:30:33;;;;;;;1.23;0.70;;;;;;;;;;5053758;28;20064;-72
2023/12/21 12:33:05;;;;;;;0.77;0.60;;;;;;;;;;5053744;28;20033;-72
2023/12/21 12:35:37;;;;;;;1.77;0.40;;;;;;;;;;5053767;28;20023;-72
2023/12/21 12:38:06;;;;;;;1.70;0.60;;;;;;;;;;5053672;28;20029;-69
2023/12/21 12:40:33;;;;;;;1.02;0.52;;;;;;;;;;5052647;28;20359;-72
2023/12/21 12:43:02;;;;;;;1.30;0.60;;;;;;;;;;5053177;28;20021;-72
2023/12/21 12:45:27;;;;;;;0.75;0.52;;;;;;;;;;5053547;28;20067;-71
2023/12/21 12:47:54;;;;;;;2.03;0.95;;;;;;;;;;5053070;28;20474;-72
2023/12/21 12:50:23;;;;;;;2.35;0.60;;;;;;;;;;5052694;28;20029;-74
2023/12/21 12:52:49;;;;;;;0.50;0.50;;;;;;;;;;5053500;28;20032;-72
2023/12/21 12:55:14;;;;;;;1.30;0.50;;;;;;;;;;5053328;28;20283;-72
2023/12/21 12:57:49;;;;;;;1.20;0.60;;;;;;;;;;5053396;28;20031;-70
2023/12/21 13:00:18;;;;;;;0.50;0.50;;;;;;;;;;5053462;28;20036;-71
2023/12/21 13:02:44;;;;;;;3.10;0.60;;;;;;;;;;5053131;28;20025;-71
2023/12/21 13:05:11;;;;;;;2.80;0.60;;;;;;;;;;5053444;28;20021;-74
2023/12/21 13:07:38;;;;;;;1.20;0.60;;;;;;;;;;5051879;28;20029;-72
2023/12/21 13:10:04;;;;;;;2.00;0.70;;;;;;;;;;5053020;28;20025;-72
2023/12/21 13:12:30;;;;;;;1.83;0.68;;;;;;;;;;5053207;28;20079;-72
2023/12/21 13:14:55;;;;;;;0.43;0.40;;;;;;;;;;5053159;28;20020;-67
2023/12/21 13:17:20;;;;;;;1.00;0.50;;;;;;;;;;5052864;28;20425;-71
2023/12/21 13:19:47;;;;;;;0.60;0.50;;;;;;;;;;5053085;28;20044;-70
2023/12/21 13:22:13;;;;;;;2.08;0.82;;;;;;;;;;5052520;28;20482;-73
2023/12/21 13:24:41;;;;;;;1.55;0.80;;;;;;;;;;5032953;28;20407;-73
2023/12/21 13:27:07;;;;;;;1.75;0.70;;;;;;;;;;5038090;28;20509;-71
2023/12/21 13:29:32;;;;;;;0.50;0.50;;;;;;;;;;5052594;28;20080;-72
2023/12/21 13:32:00;;;;;;;1.02;0.70;;;;;;;;;;5052415;28;20175;-71
2023/12/21 13:34:25;;;;;;;0.90;0.70;;;;;;;;;;5052638;28;20032;-71
2023/12/21 13:36:51;;;;;;;1.00;0.75;;;;;;;;;;5051878;28;20068;-71
2023/12/21 13:39:16;;;;;;;1.25;0.57;;;;;;;;;;5052317;28;20032;-71
2023/12/21 13:41:44;;;;;;;1.05;0.65;;;;;;;;;;5052754;28;20390;-71
2023/12/21 13:44:09;;;;;;;1.77;0.60;;;;;;;;;;5052563;28;20029;-72
2023/12/21 13:46:35;;;;;;;0.63;0.60;;;;;;;;;;5052243;28;20048;-71
2023/12/21 13:49:00;;;;;;;1.27;0.45;;;;;;;;;;5052323;28;20114;-71
2023/12/21 13:51:26;;;;;;;0.80;0.50;;;;;;;;;;5052186;28;20115;-71
2023/12/21 13:53:51;;;;;;;1.30;0.77;;;;;;;;;;5050788;28;20124;-70
2023/12/21 13:56:17;;;;;;;3.03;1.10;;;;;;;;;;5052443;28;20021;-71
2023/12/21 13:58:42;;;;;;;2.72;1.20;;;;;;;;;;5052298;28;20087;-70
2023/12/21 14:01:07;;;;;;;2.03;0.90;;;;;;;;;;5051692;28;20032;-71
2023/12/21 14:03:34;;;;;;;3.03;1.00;;;;;;;;;;5052454;28;20421;-71
2023/12/21 14:05:59;;;;;;;2.05;0.80;;;;;;;;;;5052201;28;20029;-70
2023/12/21 14:08:25;;;;;;;3.80;1.13;;;;;;;;;;5051608;28;20033;-70
2023/12/21 14:10:50;;;;;;;2.30;0.90;;;;;;;;;;5052022;28;20460;-70
2023/12/21 14:13:16;;;;;;;4.55;1.05;;;;;;;;;;5052193;28;20374;-71
2023/12/21 14:15:41;;;;;;;4.07;0.98;;;;;;;;;;5053505;28;20043;-70
2023/12/21 14:18:07;;;;;;;0.93;0.60;;;;;;;;;;5057654;28;20029;-70
2023/12/21 14:20:32;;;;;;;1.02;0.93;;;;;;;;;;5058894;28;20033;-70
2023/12/21 14:22:58;;;;;;;0.45;0.45;;;;;;;;;;5058722;28;20075;-71
2023/12/21 14:25:23;;;;;;;1.92;0.40;;;;;;;;;;5058757;28;20033;-72
2023/12/21 14:27:48;;;;;;;0.57;0.40;;;;;;;;;;5058297;28;20028;-72
2023/12/21 14:30:14;;;;;;;1.55;0.60;;;;;;;;;;5057641;28;20401;-72
2023/12/21 14:32:40;;;;;;;0.88;0.60;;;;;;;;;;5058657;28;20031;-73
2023/12/21 14:35:05;;;;;;;1.88;0.57;;;;;;;;;;5058773;28;20163;-72
2023/12/21 14:37:31;;;;;;;1.10;0.80;;;;;;;;;;5058697;28;20478;-73